Aérodrome :
LOGIN :

S'inscrire | Disclaimer

   EN    FR    IT 

 










Légende :    VFR   VFR Marginal   IFR   IFR Intensif   IFR Très Intensif
Visi : 
Plafond : 
>= 8 km
>= 3000ft
5 à 8 km
1000 à 3000 ft
1500m à 5 km
500 à 1000 ft
800 à 1500m
200 à 500 ft
< 800m
< 200 ft
Symboles :   Orages  Brouillard  Fortes neiges  Fortes précipitations  Vent > 20 kt
SIGMETs :   Divers  Orages  Givrage  Turbulence  Onde Orograph.  Cendres Volcan.






- Altitude de l'aérodrome : 75 ft
- Code IATA : MRH


EGYM - RAF Marham

DERNIER METAR :
  • 251550Z 20006KT 9999 FEW020 BKN040 05/03 Q0995 NOSIG RMK BLU BLU

METARs EXPIRÉS :
  • 251523Z 20004KT 9999 FEW020CB SCT040 06/04 Q0995 NOSIG RMK BLU BLU
  • 251450Z 25018KT 9000 -RASN OVC015 04/02 Q0996 WHT TEMPO 9999 NSW FEW015 SCT030 RMK WHT TEMPO BLU
  • 251425Z 25011KT 9999 VCSH BKN030 07/00 Q0995 TEMPO 3000 SHGS SCT012 BKN018CB RMK BLU TEMPO YLO1
  • 251350Z 24016KT 9999 FEW030 SCT035 BKN200 08/01 Q0996 TEMPO 6000 SHRA SCT020 RMK BLU TEMPO WHT
  • 251320Z 24013KT 9999 SCT030 08/01 Q0996 TEMPO 6000 SHRA SCT020 RMK BLU TEMPO WHT
  • 251250Z 26015KT 9999 FEW030 SCT035 07/00 Q0997 TEMPO 6000 SHRA SCT020 RMK BLU TEMPO WHT

TAF TAF EGYM
Valide du 25 à 15h jusqu'au 25 à 20h UTC


251330Z 2515/2520 24012KT 9999 SCT030
TEMPO 2515/2520 6000 SHRA BKN020CB
PROB40
TEMPO 2515/2520 3000 SHGS SCT012 BKN018CB



MET'MAP, la Météo Aéronautique d'un coup d'oeil ! - Copyright ORBIFLY Décembre 2007 - Disclaimer

ORBIFLY MET'MAP TEAM :

Programmation & Développement : Alexandra Zaïnal
Sur une idée originale de : Baudouin d'Aumeries
Assistance à la programmation : Marc-Olivier Méhu
Soutien technique & logistique : Manuel Goepfert

Contact : metmap@orbifly.com




SOURCES & CREDITS :

   NOAA